sensor_id;sensor_type;location;lat;lon;timestamp;P1;durP1;ratioP1;P2;durP2;ratioP2
24409;SDS011;12543;53.364;-1.504;2023-12-20T00:00:06;9.97;;;2.13;;
24409;SDS011;12543;53.364;-1.504;2023-12-20T00:02:34;6.97;;;1.70;;
24409;SDS011;12543;53.364;-1.504;2023-12-20T00:05:01;6.53;;;1.83;;
24409;SDS011;12543;53.364;-1.504;2023-12-20T00:07:29;10.82;;;2.05;;
24409;SDS011;12543;53.364;-1.504;2023-12-20T00:09:57;13.38;;;2.17;;
24409;SDS011;12543;53.364;-1.504;2023-12-20T00:12:24;6.07;;;1.67;;
24409;SDS011;12543;53.364;-1.504;2023-12-20T00:14:52;7.65;;;1.80;;
24409;SDS011;12543;53.364;-1.504;2023-12-20T00:17:19;8.88;;;2.35;;
24409;SDS011;12543;53.364;-1.504;2023-12-20T00:19:47;9.90;;;2.17;;
24409;SDS011;12543;53.364;-1.504;2023-12-20T00:22:14;8.13;;;2.10;;
24409;SDS011;12543;53.364;-1.504;2023-12-20T00:24:42;7.03;;;1.80;;
24409;SDS011;12543;53.364;-1.504;2023-12-20T00:27:09;9.10;;;2.10;;
24409;SDS011;12543;53.364;-1.504;2023-12-20T00:29:38;8.02;;;1.73;;
24409;SDS011;12543;53.364;-1.504;2023-12-20T00:32:05;6.97;;;1.52;;
24409;SDS011;12543;53.364;-1.504;2023-12-20T00:34:33;13.48;;;2.08;;
24409;SDS011;12543;53.364;-1.504;2023-12-20T00:37:01;9.32;;;2.03;;
24409;SDS011;12543;53.364;-1.504;2023-12-20T00:39:28;9.30;;;2.22;;
24409;SDS011;12543;53.364;-1.504;2023-12-20T00:42:01;8.60;;;1.87;;
24409;SDS011;12543;53.364;-1.504;2023-12-20T00:45:18;7.95;;;1.85;;
24409;SDS011;12543;53.364;-1.504;2023-12-20T00:47:45;9.10;;;2.40;;
24409;SDS011;12543;53.364;-1.504;2023-12-20T00:50:13;8.75;;;2.15;;
24409;SDS011;12543;53.364;-1.504;2023-12-20T00:52:41;9.98;;;1.98;;
24409;SDS011;12543;53.364;-1.504;2023-12-20T00:55:08;6.68;;;1.98;;
24409;SDS011;12543;53.364;-1.504;2023-12-20T00:57:36;7.37;;;1.67;;
24409;SDS011;12543;53.364;-1.504;2023-12-20T01:00:04;7.33;;;1.83;;
24409;SDS011;12543;53.364;-1.504;2023-12-20T01:02:32;8.40;;;2.00;;
24409;SDS011;12543;53.364;-1.504;2023-12-20T01:04:59;7.47;;;2.10;;
24409;SDS011;12543;53.364;-1.504;2023-12-20T01:07:27;7.20;;;2.07;;
24409;SDS011;12543;53.364;-1.504;2023-12-20T01:09:54;7.82;;;1.60;;
24409;SDS011;12543;53.364;-1.504;2023-12-20T01:12:22;6.25;;;1.67;;
24409;SDS011;12543;53.364;-1.504;2023-12-20T01:14:49;6.23;;;1.60;;
24409;SDS011;12543;53.364;-1.504;2023-12-20T01:17:17;6.20;;;1.63;;
24409;SDS011;12543;53.364;-1.504;2023-12-20T01:19:44;8.70;;;2.27;;
24409;SDS011;12543;53.364;-1.504;2023-12-20T01:22:12;15.68;;;2.90;;
24409;SDS011;12543;53.364;-1.504;2023-12-20T01:24:40;9.15;;;2.42;;
24409;SDS011;12543;53.364;-1.504;2023-12-20T01:27:07;9.10;;;2.33;;
24409;SDS011;12543;53.364;-1.504;2023-12-20T01:29:35;7.43;;;1.88;;
24409;SDS011;12543;53.364;-1.504;2023-12-20T01:32:02;6.20;;;1.77;;
24409;SDS011;12543;53.364;-1.504;2023-12-20T01:34:30;11.23;;;2.25;;
24409;SDS011;12543;53.364;-1.504;2023-12-20T01:36:57;9.02;;;2.40;;
24409;SDS011;12543;53.364;-1.504;2023-12-20T01:39:28;9.55;;;2.38;;
24409;SDS011;12543;53.364;-1.504;2023-12-20T01:41:55;12.30;;;2.37;;
24409;SDS011;12543;53.364;-1.504;2023-12-20T01:44:23;10.37;;;2.30;;
24409;SDS011;12543;53.364;-1.504;2023-12-20T01:46:51;8.10;;;2.13;;
24409;SDS011;12543;53.364;-1.504;2023-12-20T01:49:18;8.77;;;2.20;;
24409;SDS011;12543;53.364;-1.504;2023-12-20T01:51:46;11.63;;;2.10;;
24409;SDS011;12543;53.364;-1.504;2023-12-20T01:54:14;7.93;;;2.08;;
24409;SDS011;12543;53.364;-1.504;2023-12-20T01:56:42;6.07;;;1.52;;
24409;SDS011;12543;53.364;-1.504;2023-12-20T01:59:10;8.35;;;2.05;;
24409;SDS011;12543;53.364;-1.504;2023-12-20T02:01:37;11.03;;;2.40;;
24409;SDS011;12543;53.364;-1.504;2023-12-20T02:04:05;7.77;;;2.00;;
24409;SDS011;12543;53.364;-1.504;2023-12-20T02:06:33;10.20;;;2.05;;
24409;SDS011;12543;53.364;-1.504;2023-12-20T02:09:01;8.35;;;2.38;;
24409;SDS011;12543;53.364;-1.504;2023-12-20T02:11:29;6.30;;;1.42;;
24409;SDS011;12543;53.364;-1.504;2023-12-20T02:13:57;11.40;;;2.17;;
24409;SDS011;12543;53.364;-1.504;2023-12-20T02:16:24;6.32;;;1.77;;
24409;SDS011;12543;53.364;-1.504;2023-12-20T02:18:52;7.20;;;1.85;;
24409;SDS011;12543;53.364;-1.504;2023-12-20T02:21:24;11.10;;;2.43;;
24409;SDS011;12543;53.364;-1.504;2023-12-20T02:23:51;8.45;;;2.10;;
24409;SDS011;12543;53.364;-1.504;2023-12-20T02:26:19;8.32;;;1.88;;
24409;SDS011;12543;53.364;-1.504;2023-12-20T02:28:46;14.07;;;2.70;;
24409;SDS011;12543;53.364;-1.504;2023-12-20T02:31:14;8.48;;;1.67;;
24409;SDS011;12543;53.364;-1.504;2023-12-20T02:33:42;9.43;;;1.73;;
24409;SDS011;12543;53.364;-1.504;2023-12-20T02:36:09;7.55;;;1.75;;
24409;SDS011;12543;53.364;-1.504;2023-12-20T02:38:36;9.27;;;2.30;;
24409;SDS011;12543;53.364;-1.504;2023-12-20T02:41:04;17.33;;;2.80;;
24409;SDS011;12543;53.364;-1.504;2023-12-20T02:43:32;9.48;;;2.42;;
24409;SDS011;12543;53.364;-1.504;2023-12-20T02:46:00;10.05;;;1.92;;
24409;SDS011;12543;53.364;-1.504;2023-12-20T02:48:27;7.45;;;2.25;;
24409;SDS011;12543;53.364;-1.504;2023-12-20T02:50:55;9.73;;;2.10;;
24409;SDS011;12543;53.364;-1.504;2023-12-20T02:53:22;6.77;;;2.43;;
24409;SDS011;12543;53.364;-1.504;2023-12-20T02:55:50;8.88;;;2.38;;
24409;SDS011;12543;53.364;-1.504;2023-12-20T02:58:17;8.73;;;1.92;;
24409;SDS011;12543;53.364;-1.504;2023-12-20T03:00:45;8.45;;;1.92;;
24409;SDS011;12543;53.364;-1.504;2023-12-20T03:03:13;9.82;;;2.03;;
24409;SDS011;12543;53.364;-1.504;2023-12-20T03:05:40;10.55;;;2.15;;
24409;SDS011;12543;53.364;-1.504;2023-12-20T03:08:08;6.43;;;1.73;;
24409;SDS011;12543;53.364;-1.504;2023-12-20T03:10:37;8.23;;;1.65;;
24409;SDS011;12543;53.364;-1.504;2023-12-20T03:13:04;5.07;;;1.77;;
24409;SDS011;12543;53.364;-1.504;2023-12-20T03:15:32;5.90;;;1.80;;
24409;SDS011;12543;53.364;-1.504;2023-12-20T03:18:00;7.78;;;1.92;;
24409;SDS011;12543;53.364;-1.504;2023-12-20T03:20:27;10.23;;;1.85;;
24409;SDS011;12543;53.364;-1.504;2023-12-20T03:22:55;5.47;;;1.40;;
24409;SDS011;12543;53.364;-1.504;2023-12-20T03:25:22;7.25;;;2.03;;
24409;SDS011;12543;53.364;-1.504;2023-12-20T03:27:50;9.98;;;2.63;;
24409;SDS011;12543;53.364;-1.504;2023-12-20T03:30:18;5.72;;;1.77;;
24409;SDS011;12543;53.364;-1.504;2023-12-20T03:32:46;6.00;;;1.40;;
24409;SDS011;12543;53.364;-1.504;2023-12-20T03:35:14;8.52;;;1.63;;
24409;SDS011;12543;53.364;-1.504;2023-12-20T03:37:41;8.30;;;1.67;;
24409;SDS011;12543;53.364;-1.504;2023-12-20T03:40:10;7.93;;;1.92;;
24409;SDS011;12543;53.364;-1.504;2023-12-20T03:42:39;7.68;;;1.52;;
24409;SDS011;12543;53.364;-1.504;2023-12-20T03:45:06;6.90;;;1.50;;
24409;SDS011;12543;53.364;-1.504;2023-12-20T03:47:34;6.10;;;1.77;;
24409;SDS011;12543;53.364;-1.504;2023-12-20T03:50:02;8.45;;;2.17;;
24409;SDS011;12543;53.364;-1.504;2023-12-20T03:52:29;5.77;;;2.20;;
24409;SDS011;12543;53.364;-1.504;2023-12-20T03:54:57;8.18;;;1.90;;
24409;SDS011;12543;53.364;-1.504;2023-12-20T03:57:24;6.35;;;1.75;;
24409;SDS011;12543;53.364;-1.504;2023-12-20T03:59:52;8.50;;;1.83;;
24409;SDS011;12543;53.364;-1.504;2023-12-20T04:02:19;7.53;;;1.95;;
24409;SDS011;12543;53.364;-1.504;2023-12-20T04:04:47;12.13;;;2.13;;
24409;SDS011;12543;53.364;-1.504;2023-12-20T04:07:14;10.10;;;2.03;;
24409;SDS011;12543;53.364;-1.504;2023-12-20T04:09:42;5.63;;;1.80;;
24409;SDS011;12543;53.364;-1.504;2023-12-20T04:12:10;8.73;;;1.90;;
24409;SDS011;12543;53.364;-1.504;2023-12-20T04:14:39;7.28;;;1.80;;
24409;SDS011;12543;53.364;-1.504;2023-12-20T04:17:06;8.13;;;1.83;;
24409;SDS011;12543;53.364;-1.504;2023-12-20T04:19:34;7.80;;;1.83;;
24409;SDS011;12543;53.364;-1.504;2023-12-20T04:22:02;7.70;;;1.60;;
24409;SDS011;12543;53.364;-1.504;2023-12-20T04:24:29;7.97;;;1.50;;
24409;SDS011;12543;53.364;-1.504;2023-12-20T04:26:57;8.02;;;1.75;;
24409;SDS011;12543;53.364;-1.504;2023-12-20T04:29:25;5.47;;;1.60;;
24409;SDS011;12543;53.364;-1.504;2023-12-20T04:31:52;6.85;;;1.40;;
24409;SDS011;12543;53.364;-1.504;2023-12-20T04:34:20;7.53;;;1.75;;
24409;SDS011;12543;53.364;-1.504;2023-12-20T04:36:48;7.88;;;1.88;;
24409;SDS011;12543;53.364;-1.504;2023-12-20T04:39:15;5.97;;;1.70;;
24409;SDS011;12543;53.364;-1.504;2023-12-20T04:41:43;5.83;;;1.73;;
24409;SDS011;12543;53.364;-1.504;2023-12-20T04:44:10;7.80;;;1.90;;
24409;SDS011;12543;53.364;-1.504;2023-12-20T04:46:40;7.50;;;1.40;;
24409;SDS011;12543;53.364;-1.504;2023-12-20T04:49:07;7.80;;;1.42;;
24409;SDS011;12543;53.364;-1.504;2023-12-20T04:51:35;6.85;;;1.15;;
24409;SDS011;12543;53.364;-1.504;2023-12-20T04:54:03;4.88;;;1.23;;
24409;SDS011;12543;53.364;-1.504;2023-12-20T04:56:30;3.80;;;1.27;;
24409;SDS011;12543;53.364;-1.504;2023-12-20T04:58:58;6.32;;;1.42;;
24409;SDS011;12543;53.364;-1.504;2023-12-20T05:01:25;5.67;;;1.77;;
24409;SDS011;12543;53.364;-1.504;2023-12-20T05:03:53;8.70;;;1.50;;
24409;SDS011;12543;53.364;-1.504;2023-12-20T05:06:20;6.53;;;1.27;;
24409;SDS011;12543;53.364;-1.504;2023-12-20T05:08:48;6.37;;;1.20;;
24409;SDS011;12543;53.364;-1.504;2023-12-20T05:11:16;7.55;;;1.52;;
24409;SDS011;12543;53.364;-1.504;2023-12-20T05:13:43;6.03;;;1.77;;
24409;SDS011;12543;53.364;-1.504;2023-12-20T05:16:16;10.10;;;1.55;;
24409;SDS011;12543;53.364;-1.504;2023-12-20T05:18:45;8.70;;;1.73;;
24409;SDS011;12543;53.364;-1.504;2023-12-20T05:21:13;6.47;;;1.40;;
24409;SDS011;12543;53.364;-1.504;2023-12-20T05:23:40;5.37;;;1.70;;
24409;SDS011;12543;53.364;-1.504;2023-12-20T05:26:08;6.45;;;1.40;;
24409;SDS011;12543;53.364;-1.504;2023-12-20T05:28:36;5.97;;;1.57;;
24409;SDS011;12543;53.364;-1.504;2023-12-20T05:31:03;7.05;;;1.15;;
24409;SDS011;12543;53.364;-1.504;2023-12-20T05:33:31;5.68;;;1.55;;
24409;SDS011;12543;53.364;-1.504;2023-12-20T05:35:59;5.53;;;1.40;;
24409;SDS011;12543;53.364;-1.504;2023-12-20T05:38:26;6.30;;;1.17;;
24409;SDS011;12543;53.364;-1.504;2023-12-20T05:40:54;4.70;;;1.30;;
24409;SDS011;12543;53.364;-1.504;2023-12-20T05:43:21;6.43;;;1.63;;
24409;SDS011;12543;53.364;-1.504;2023-12-20T05:45:49;10.45;;;1.75;;
24409;SDS011;12543;53.364;-1.504;2023-12-20T05:48:17;6.70;;;1.27;;
24409;SDS011;12543;53.364;-1.504;2023-12-20T05:50:44;6.67;;;1.40;;
24409;SDS011;12543;53.364;-1.504;2023-12-20T05:53:12;5.47;;;1.48;;
24409;SDS011;12543;53.364;-1.504;2023-12-20T05:55:40;7.30;;;1.45;;
24409;SDS011;12543;53.364;-1.504;2023-12-20T05:58:07;8.63;;;1.42;;
24409;SDS011;12543;53.364;-1.504;2023-12-20T06:00:35;4.87;;;1.53;;
24409;SDS011;12543;53.364;-1.504;2023-12-20T06:03:03;6.05;;;1.27;;
24409;SDS011;12543;53.364;-1.504;2023-12-20T06:05:33;5.75;;;1.48;;
24409;SDS011;12543;53.364;-1.504;2023-12-20T06:08:01;3.23;;;1.10;;
24409;SDS011;12543;53.364;-1.504;2023-12-20T06:10:29;8.65;;;1.88;;
24409;SDS011;12543;53.364;-1.504;2023-12-20T06:12:57;7.22;;;1.38;;
24409;SDS011;12543;53.364;-1.504;2023-12-20T06:15:27;6.22;;;1.40;;
24409;SDS011;12543;53.364;-1.504;2023-12-20T06:17:55;7.18;;;1.33;;
24409;SDS011;12543;53.364;-1.504;2023-12-20T06:20:22;6.78;;;1.50;;
24409;SDS011;12543;53.364;-1.504;2023-12-20T06:22:50;5.53;;;1.57;;
24409;SDS011;12543;53.364;-1.504;2023-12-20T06:25:17;5.95;;;1.50;;
24409;SDS011;12543;53.364;-1.504;2023-12-20T06:27:45;3.78;;;1.33;;
24409;SDS011;12543;53.364;-1.504;2023-12-20T06:30:13;5.13;;;1.08;;
24409;SDS011;12543;53.364;-1.504;2023-12-20T06:32:41;5.15;;;1.05;;
24409;SDS011;12543;53.364;-1.504;2023-12-20T06:35:09;2.27;;;0.87;;
24409;SDS011;12543;53.364;-1.504;2023-12-20T06:37:37;6.50;;;1.52;;
24409;SDS011;12543;53.364;-1.504;2023-12-20T06:40:09;7.13;;;1.35;;
24409;SDS011;12543;53.364;-1.504;2023-12-20T06:42:44;4.10;;;1.20;;
24409;SDS011;12543;53.364;-1.504;2023-12-20T06:45:27;5.28;;;1.27;;
24409;SDS011;12543;53.364;-1.504;2023-12-20T06:47:54;6.43;;;1.37;;
24409;SDS011;12543;53.364;-1.504;2023-12-20T06:50:22;3.90;;;1.47;;
24409;SDS011;12543;53.364;-1.504;2023-12-20T06:52:50;6.18;;;1.70;;
24409;SDS011;12543;53.364;-1.504;2023-12-20T06:55:18;5.05;;;1.10;;
24409;SDS011;12543;53.364;-1.504;2023-12-20T06:57:46;6.30;;;1.40;;
24409;SDS011;12543;53.364;-1.504;2023-12-20T07:00:14;4.32;;;1.20;;
24409;SDS011;12543;53.364;-1.504;2023-12-20T07:02:42;7.22;;;1.42;;
24409;SDS011;12543;53.364;-1.504;2023-12-20T07:05:11;4.45;;;0.90;;
24409;SDS011;12543;53.364;-1.504;2023-12-20T07:07:39;3.97;;;1.17;;
24409;SDS011;12543;53.364;-1.504;2023-12-20T07:10:07;4.07;;;0.90;;
24409;SDS011;12543;53.364;-1.504;2023-12-20T07:12:34;8.65;;;1.73;;
24409;SDS011;12543;53.364;-1.504;2023-12-20T07:15:02;6.80;;;1.20;;
24409;SDS011;12543;53.364;-1.504;2023-12-20T07:17:30;3.80;;;1.10;;
24409;SDS011;12543;53.364;-1.504;2023-12-20T07:20:00;6.85;;;1.13;;
24409;SDS011;12543;53.364;-1.504;2023-12-20T07:22:31;5.28;;;1.27;;
24409;SDS011;12543;53.364;-1.504;2023-12-20T07:24:59;4.90;;;1.23;;
24409;SDS011;12543;53.364;-1.504;2023-12-20T07:27:27;3.20;;;0.98;;
24409;SDS011;12543;53.364;-1.504;2023-12-20T07:29:54;4.88;;;1.40;;
24409;SDS011;12543;53.364;-1.504;2023-12-20T07:32:22;3.92;;;0.93;;
24409;SDS011;12543;53.364;-1.504;2023-12-20T07:34:49;7.40;;;2.07;;
24409;SDS011;12543;53.364;-1.504;2023-12-20T07:37:17;4.60;;;1.40;;
24409;SDS011;12543;53.364;-1.504;2023-12-20T07:39:45;4.50;;;1.00;;
24409;SDS011;12543;53.364;-1.504;2023-12-20T07:42:12;10.53;;;1.83;;
24409;SDS011;12543;53.364;-1.504;2023-12-20T07:44:40;4.35;;;1.02;;
24409;SDS011;12543;53.364;-1.504;2023-12-20T07:47:08;7.35;;;1.48;;
24409;SDS011;12543;53.364;-1.504;2023-12-20T07:49:35;6.73;;;1.37;;
24409;SDS011;12543;53.364;-1.504;2023-12-20T07:52:03;5.07;;;1.17;;
24409;SDS011;12543;53.364;-1.504;2023-12-20T07:54:31;5.10;;;1.30;;
24409;SDS011;12543;53.364;-1.504;2023-12-20T07:56:58;5.75;;;1.23;;
24409;SDS011;12543;53.364;-1.504;2023-12-20T07:59:26;5.70;;;1.15;;
24409;SDS011;12543;53.364;-1.504;2023-12-20T08:01:58;4.53;;;1.25;;
24409;SDS011;12543;53.364;-1.504;2023-12-20T08:04:26;6.47;;;1.48;;
24409;SDS011;12543;53.364;-1.504;2023-12-20T08:06:54;6.70;;;1.50;;
24409;SDS011;12543;53.364;-1.504;2023-12-20T08:09:22;5.55;;;1.48;;
24409;SDS011;12543;53.364;-1.504;2023-12-20T08:11:50;8.37;;;1.50;;
24409;SDS011;12543;53.364;-1.504;2023-12-20T08:14:17;4.65;;;1.30;;
24409;SDS011;12543;53.364;-1.504;2023-12-20T08:16:45;3.92;;;1.20;;
24409;SDS011;12543;53.364;-1.504;2023-12-20T08:19:12;4.30;;;0.97;;
24409;SDS011;12543;53.364;-1.504;2023-12-20T08:21:40;4.78;;;1.20;;
24409;SDS011;12543;53.364;-1.504;2023-12-20T08:24:08;1.90;;;0.85;;
24409;SDS011;12543;53.364;-1.504;2023-12-20T08:26:36;5.80;;;0.87;;
24409;SDS011;12543;53.364;-1.504;2023-12-20T08:29:03;6.82;;;1.17;;
24409;SDS011;12543;53.364;-1.504;2023-12-20T08:31:34;5.72;;;1.30;;
24409;SDS011;12543;53.364;-1.504;2023-12-20T08:34:01;6.03;;;1.55;;
24409;SDS011;12543;53.364;-1.504;2023-12-20T08:36:32;4.57;;;1.10;;
24409;SDS011;12543;53.364;-1.504;2023-12-20T08:38:59;4.32;;;0.82;;
24409;SDS011;12543;53.364;-1.504;2023-12-20T08:41:27;4.22;;;0.98;;
24409;SDS011;12543;53.364;-1.504;2023-12-20T08:43:54;5.50;;;1.03;;
24409;SDS011;12543;53.364;-1.504;2023-12-20T08:46:22;6.07;;;1.10;;
24409;SDS011;12543;53.364;-1.504;2023-12-20T08:48:50;5.70;;;1.20;;
24409;SDS011;12543;53.364;-1.504;2023-12-20T08:51:17;3.88;;;1.23;;
24409;SDS011;12543;53.364;-1.504;2023-12-20T08:53:45;3.58;;;0.95;;
24409;SDS011;12543;53.364;-1.504;2023-12-20T08:56:14;3.85;;;1.02;;
24409;SDS011;12543;53.364;-1.504;2023-12-20T08:58:42;6.35;;;1.38;;
24409;SDS011;12543;53.364;-1.504;2023-12-20T09:01:09;6.88;;;1.33;;
24409;SDS011;12543;53.364;-1.504;2023-12-20T09:03:37;5.43;;;1.17;;
24409;SDS011;12543;53.364;-1.504;2023-12-20T09:06:04;6.13;;;1.65;;
24409;SDS011;12543;53.364;-1.504;2023-12-20T09:08:32;4.20;;;1.30;;
24409;SDS011;12543;53.364;-1.504;2023-12-20T09:11:00;5.45;;;1.38;;
24409;SDS011;12543;53.364;-1.504;2023-12-20T09:13:28;5.45;;;1.35;;
24409;SDS011;12543;53.364;-1.504;2023-12-20T09:15:58;3.47;;;0.90;;
24409;SDS011;12543;53.364;-1.504;2023-12-20T09:18:26;6.85;;;1.10;;
24409;SDS011;12543;53.364;-1.504;2023-12-20T09:20:54;4.30;;;1.10;;
24409;SDS011;12543;53.364;-1.504;2023-12-20T09:23:22;4.15;;;1.35;;
24409;SDS011;12543;53.364;-1.504;2023-12-20T09:25:49;4.30;;;1.10;;
24409;SDS011;12543;53.364;-1.504;2023-12-20T09:28:20;3.95;;;1.15;;
24409;SDS011;12543;53.364;-1.504;2023-12-20T09:30:48;3.83;;;1.33;;
24409;SDS011;12543;53.364;-1.504;2023-12-20T09:33:16;6.67;;;1.30;;
24409;SDS011;12543;53.364;-1.504;2023-12-20T09:35:43;4.80;;;1.08;;
24409;SDS011;12543;53.364;-1.504;2023-12-20T09:38:11;3.88;;;0.95;;
24409;SDS011;12543;53.364;-1.504;2023-12-20T09:40:41;1.73;;;0.63;;
24409;SDS011;12543;53.364;-1.504;2023-12-20T09:43:15;4.97;;;1.10;;
24409;SDS011;12543;53.364;-1.504;2023-12-20T09:45:44;3.10;;;0.85;;
24409;SDS011;12543;53.364;-1.504;2023-12-20T09:48:13;3.63;;;0.95;;
24409;SDS011;12543;53.364;-1.504;2023-12-20T09:50:41;2.95;;;0.90;;
24409;SDS011;12543;53.364;-1.504;2023-12-20T09:53:15;1.92;;;0.60;;
24409;SDS011;12543;53.364;-1.504;2023-12-20T09:55:43;3.30;;;0.90;;
24409;SDS011;12543;53.364;-1.504;2023-12-20T09:58:11;1.75;;;0.60;;
24409;SDS011;12543;53.364;-1.504;2023-12-20T10:00:39;0.93;;;0.60;;
24409;SDS011;12543;53.364;-1.504;2023-12-20T10:03:07;3.57;;;0.90;;
24409;SDS011;12543;53.364;-1.504;2023-12-20T10:05:35;1.85;;;0.70;;
24409;SDS011;12543;53.364;-1.504;2023-12-20T10:08:04;1.23;;;0.57;;
24409;SDS011;12543;53.364;-1.504;2023-12-20T10:10:32;0.30;;;0.30;;
24409;SDS011;12543;53.364;-1.504;2023-12-20T10:13:11;2.15;;;0.60;;
24409;SDS011;12543;53.364;-1.504;2023-12-20T10:15:40;1.10;;;0.47;;
24409;SDS011;12543;53.364;-1.504;2023-12-20T10:18:09;1.85;;;0.55;;
24409;SDS011;12543;53.364;-1.504;2023-12-20T10:20:40;1.73;;;0.50;;
24409;SDS011;12543;53.364;-1.504;2023-12-20T10:23:08;1.95;;;0.57;;
24409;SDS011;12543;53.364;-1.504;2023-12-20T10:28:11;3.03;;;0.70;;
24409;SDS011;12543;53.364;-1.504;2023-12-20T10:30:40;1.70;;;0.50;;
24409;SDS011;12543;53.364;-1.504;2023-12-20T10:33:08;2.17;;;0.50;;
24409;SDS011;12543;53.364;-1.504;2023-12-20T10:35:38;1.38;;;0.60;;
24409;SDS011;12543;53.364;-1.504;2023-12-20T10:38:11;1.05;;;0.30;;
24409;SDS011;12543;53.364;-1.504;2023-12-20T10:40:41;0.73;;;0.30;;
24409;SDS011;12543;53.364;-1.504;2023-12-20T10:43:09;0.55;;;0.30;;
24409;SDS011;12543;53.364;-1.504;2023-12-20T10:45:38;0.60;;;0.30;;
24409;SDS011;12543;53.364;-1.504;2023-12-20T10:48:06;0.82;;;0.30;;
24409;SDS011;12543;53.364;-1.504;2023-12-20T10:50:34;0.43;;;0.20;;
24409;SDS011;12543;53.364;-1.504;2023-12-20T10:53:05;0.40;;;0.20;;
24409;SDS011;12543;53.364;-1.504;2023-12-20T10:55:33;0.30;;;0.20;;
24409;SDS011;12543;53.364;-1.504;2023-12-20T10:58:01;0.47;;;0.20;;
24409;SDS011;12543;53.364;-1.504;2023-12-20T11:00:30;0.28;;;0.10;;
24409;SDS011;12543;53.364;-1.504;2023-12-20T11:03:01;0.32;;;0.20;;
24409;SDS011;12543;53.364;-1.504;2023-12-20T11:08:07;0.63;;;0.20;;
24409;SDS011;12543;53.364;-1.504;2023-12-20T11:15:41;0.60;;;0.30;;
24409;SDS011;12543;53.364;-1.504;2023-12-20T11:18:09;3.90;;;0.52;;
24409;SDS011;12543;53.364;-1.504;2023-12-20T11:20:39;2.07;;;0.53;;
24409;SDS011;12543;53.364;-1.504;2023-12-20T11:23:08;3.97;;;0.90;;
24409;SDS011;12543;53.364;-1.504;2023-12-20T11:25:56;1.45;;;0.60;;
24409;SDS011;12543;53.364;-1.504;2023-12-20T11:28:25;3.33;;;0.80;;
24409;SDS011;12543;53.364;-1.504;2023-12-20T11:30:54;2.13;;;0.80;;
24409;SDS011;12543;53.364;-1.504;2023-12-20T11:33:22;3.03;;;0.73;;
24409;SDS011;12543;53.364;-1.504;2023-12-20T11:35:55;2.72;;;0.73;;
24409;SDS011;12543;53.364;-1.504;2023-12-20T11:38:23;2.70;;;0.70;;
24409;SDS011;12543;53.364;-1.504;2023-12-20T11:40:51;4.40;;;0.83;;
24409;SDS011;12543;53.364;-1.504;2023-12-20T11:43:37;1.73;;;0.63;;
24409;SDS011;12543;53.364;-1.504;2023-12-20T11:46:06;4.45;;;1.10;;
24409;SDS011;12543;53.364;-1.504;2023-12-20T11:48:37;4.20;;;1.23;;
24409;SDS011;12543;53.364;-1.504;2023-12-20T11:51:10;6.05;;;1.30;;
24409;SDS011;12543;53.364;-1.504;2023-12-20T11:53:38;8.18;;;1.85;;
24409;SDS011;12543;53.364;-1.504;2023-12-20T11:56:07;7.90;;;1.60;;
24409;SDS011;12543;53.364;-1.504;2023-12-20T11:58:35;4.35;;;1.60;;
24409;SDS011;12543;53.364;-1.504;2023-12-20T12:01:03;10.18;;;1.80;;
24409;SDS011;12543;53.364;-1.504;2023-12-20T12:05:59;9.60;;;1.80;;
24409;SDS011;12543;53.364;-1.504;2023-12-20T12:08:27;4.57;;;1.50;;
24409;SDS011;12543;53.364;-1.504;2023-12-20T12:10:55;5.95;;;1.15;;
24409;SDS011;12543;53.364;-1.504;2023-12-20T12:13:22;5.23;;;1.23;;
24409;SDS011;12543;53.364;-1.504;2023-12-20T12:15:53;4.93;;;1.23;;
24409;SDS011;12543;53.364;-1.504;2023-12-20T12:18:22;7.25;;;1.23;;
24409;SDS011;12543;53.364;-1.504;2023-12-20T12:20:49;3.17;;;0.93;;
24409;SDS011;12543;53.364;-1.504;2023-12-20T12:25:47;4.07;;;1.05;;
24409;SDS011;12543;53.364;-1.504;2023-12-20T12:28:15;6.28;;;1.00;;
24409;SDS011;12543;53.364;-1.504;2023-12-20T12:30:50;6.15;;;1.30;;
24409;SDS011;12543;53.364;-1.504;2023-12-20T12:33:24;4.50;;;1.00;;
24409;SDS011;12543;53.364;-1.504;2023-12-20T12:35:51;2.70;;;0.85;;
24409;SDS011;12543;53.364;-1.504;2023-12-20T12:38:20;2.00;;;0.80;;
24409;SDS011;12543;53.364;-1.504;2023-12-20T12:40:48;3.55;;;0.90;;
24409;SDS011;12543;53.364;-1.504;2023-12-20T12:43:17;5.85;;;1.05;;
24409;SDS011;12543;53.364;-1.504;2023-12-20T12:45:44;3.85;;;1.02;;
24409;SDS011;12543;53.364;-1.504;2023-12-20T12:48:12;5.60;;;1.00;;
24409;SDS011;12543;53.364;-1.504;2023-12-20T12:50:40;3.03;;;0.90;;
24409;SDS011;12543;53.364;-1.504;2023-12-20T12:53:07;4.25;;;1.20;;
24409;SDS011;12543;53.364;-1.504;2023-12-20T12:55:35;4.75;;;0.95;;
24409;SDS011;12543;53.364;-1.504;2023-12-20T12:58:03;4.20;;;1.00;;
24409;SDS011;12543;53.364;-1.504;2023-12-20T13:00:31;2.70;;;0.90;;
24409;SDS011;12543;53.364;-1.504;2023-12-20T13:02:58;5.47;;;1.00;;
24409;SDS011;12543;53.364;-1.504;2023-12-20T13:05:26;3.43;;;0.90;;
24409;SDS011;12543;53.364;-1.504;2023-12-20T13:10:22;2.58;;;0.95;;
24409;SDS011;12543;53.364;-1.504;2023-12-20T13:12:50;3.20;;;0.90;;
24409;SDS011;12543;53.364;-1.504;2023-12-20T13:15:18;3.08;;;0.70;;
24409;SDS011;12543;53.364;-1.504;2023-12-20T13:17:46;4.00;;;0.90;;
24409;SDS011;12543;53.364;-1.504;2023-12-20T13:20:14;2.15;;;0.65;;
24409;SDS011;12543;53.364;-1.504;2023-12-20T13:22:41;1.83;;;0.60;;
24409;SDS011;12543;53.364;-1.504;2023-12-20T13:25:09;2.10;;;0.60;;
24409;SDS011;12543;53.364;-1.504;2023-12-20T13:30:05;1.67;;;0.70;;
24409;SDS011;12543;53.364;-1.504;2023-12-20T13:32:36;2.53;;;0.65;;
24409;SDS011;12543;53.364;-1.504;2023-12-20T13:35:04;2.40;;;0.85;;
24409;SDS011;12543;53.364;-1.504;2023-12-20T13:37:32;4.72;;;0.80;;
24409;SDS011;12543;53.364;-1.504;2023-12-20T13:40:00;2.77;;;0.67;;
24409;SDS011;12543;53.364;-1.504;2023-12-20T13:42:29;3.35;;;0.70;;
24409;SDS011;12543;53.364;-1.504;2023-12-20T13:44:57;5.30;;;1.17;;
24409;SDS011;12543;53.364;-1.504;2023-12-20T13:47:24;1.80;;;0.73;;
24409;SDS011;12543;53.364;-1.504;2023-12-20T13:49:52;4.37;;;1.03;;
24409;SDS011;12543;53.364;-1.504;2023-12-20T13:52:20;4.90;;;1.30;;
24409;SDS011;12543;53.364;-1.504;2023-12-20T13:54:47;3.00;;;1.00;;
24409;SDS011;12543;53.364;-1.504;2023-12-20T13:57:15;1.92;;;0.77;;
24409;SDS011;12543;53.364;-1.504;2023-12-20T13:59:47;4.80;;;0.95;;
24409;SDS011;12543;53.364;-1.504;2023-12-20T14:02:15;2.17;;;0.90;;
24409;SDS011;12543;53.364;-1.504;2023-12-20T14:04:45;1.40;;;0.70;;
24409;SDS011;12543;53.364;-1.504;2023-12-20T14:07:13;1.77;;;0.80;;
24409;SDS011;12543;53.364;-1.504;2023-12-20T14:09:41;1.97;;;0.97;;
24409;SDS011;12543;53.364;-1.504;2023-12-20T14:12:13;3.50;;;0.77;;
24409;SDS011;12543;53.364;-1.504;2023-12-20T14:14:40;2.17;;;0.70;;
24409;SDS011;12543;53.364;-1.504;2023-12-20T14:17:08;3.50;;;0.70;;
24409;SDS011;12543;53.364;-1.504;2023-12-20T14:19:35;1.90;;;0.70;;
24409;SDS011;12543;53.364;-1.504;2023-12-20T14:22:03;2.42;;;0.70;;
24409;SDS011;12543;53.364;-1.504;2023-12-20T14:24:31;2.78;;;0.85;;
24409;SDS011;12543;53.364;-1.504;2023-12-20T14:26:59;1.88;;;0.75;;
24409;SDS011;12543;53.364;-1.504;2023-12-20T14:29:26;2.85;;;1.13;;
24409;SDS011;12543;53.364;-1.504;2023-12-20T14:31:54;1.63;;;0.70;;
24409;SDS011;12543;53.364;-1.504;2023-12-20T14:34:22;1.53;;;0.63;;
24409;SDS011;12543;53.364;-1.504;2023-12-20T14:36:51;1.30;;;0.63;;
24409;SDS011;12543;53.364;-1.504;2023-12-20T14:39:20;1.60;;;0.50;;
24409;SDS011;12543;53.364;-1.504;2023-12-20T14:41:47;2.50;;;0.43;;
24409;SDS011;12543;53.364;-1.504;2023-12-20T14:44:15;1.33;;;0.52;;
24409;SDS011;12543;53.364;-1.504;2023-12-20T14:46:43;1.08;;;0.50;;
24409;SDS011;12543;53.364;-1.504;2023-12-20T14:49:11;1.37;;;0.40;;
24409;SDS011;12543;53.364;-1.504;2023-12-20T14:51:43;1.60;;;0.50;;
24409;SDS011;12543;53.364;-1.504;2023-12-20T14:54:10;1.15;;;0.50;;
24409;SDS011;12543;53.364;-1.504;2023-12-20T14:56:38;1.85;;;0.65;;
24409;SDS011;12543;53.364;-1.504;2023-12-20T14:59:06;1.70;;;0.60;;